sensor_id;sensor_type;location;lat;lon;timestamp;P1;durP1;ratioP1;P2;durP2;ratioP2
9422;SDS011;65863;49.506;10.400;2023-02-11T00:01:49;32.17;;;20.13;;
9422;SDS011;65863;49.506;10.400;2023-02-11T00:04:34;33.30;;;20.97;;
9422;SDS011;65863;49.506;10.400;2023-02-11T00:07:18;33.17;;;20.20;;
9422;SDS011;65863;49.506;10.400;2023-02-11T00:10:03;34.13;;;20.67;;
9422;SDS011;65863;49.506;10.400;2023-02-11T00:12:50;32.60;;;19.30;;
9422;SDS011;65863;49.506;10.400;2023-02-11T00:15:34;36.30;;;21.80;;
9422;SDS011;65863;49.506;10.400;2023-02-11T00:18:20;32.93;;;20.57;;
9422;SDS011;65863;49.506;10.400;2023-02-11T00:21:11;34.43;;;19.87;;
9422;SDS011;65863;49.506;10.400;2023-02-11T00:23:58;34.50;;;19.20;;
9422;SDS011;65863;49.506;10.400;2023-02-11T00:26:44;32.63;;;19.43;;
9422;SDS011;65863;49.506;10.400;2023-02-11T00:29:28;32.27;;;19.37;;
9422;SDS011;65863;49.506;10.400;2023-02-11T00:32:12;39.33;;;20.13;;
9422;SDS011;65863;49.506;10.400;2023-02-11T00:34:56;30.17;;;19.30;;
9422;SDS011;65863;49.506;10.400;2023-02-11T00:37:40;31.23;;;19.10;;
9422;SDS011;65863;49.506;10.400;2023-02-11T00:40:26;33.97;;;19.53;;
9422;SDS011;65863;49.506;10.400;2023-02-11T00:43:10;31.17;;;19.80;;
9422;SDS011;65863;49.506;10.400;2023-02-11T00:45:54;33.03;;;19.07;;
9422;SDS011;65863;49.506;10.400;2023-02-11T00:48:38;28.97;;;18.47;;
9422;SDS011;65863;49.506;10.400;2023-02-11T00:51:23;34.10;;;19.40;;
9422;SDS011;65863;49.506;10.400;2023-02-11T00:54:08;28.87;;;18.10;;
9422;SDS011;65863;49.506;10.400;2023-02-11T00:56:52;27.23;;;17.47;;
9422;SDS011;65863;49.506;10.400;2023-02-11T00:59:36;29.80;;;18.13;;
9422;SDS011;65863;49.506;10.400;2023-02-11T01:02:20;29.60;;;18.57;;
9422;SDS011;65863;49.506;10.400;2023-02-11T01:05:04;29.20;;;18.83;;
9422;SDS011;65863;49.506;10.400;2023-02-11T01:07:50;30.20;;;19.70;;
9422;SDS011;65863;49.506;10.400;2023-02-11T01:10:33;29.17;;;17.53;;
9422;SDS011;65863;49.506;10.400;2023-02-11T01:13:17;28.07;;;18.90;;
9422;SDS011;65863;49.506;10.400;2023-02-11T01:16:02;32.83;;;19.00;;
9422;SDS011;65863;49.506;10.400;2023-02-11T01:18:46;30.97;;;19.00;;
9422;SDS011;65863;49.506;10.400;2023-02-11T01:21:31;28.93;;;18.83;;
9422;SDS011;65863;49.506;10.400;2023-02-11T01:24:15;31.10;;;19.37;;
9422;SDS011;65863;49.506;10.400;2023-02-11T01:27:01;30.47;;;18.17;;
9422;SDS011;65863;49.506;10.400;2023-02-11T01:29:45;29.87;;;17.90;;
9422;SDS011;65863;49.506;10.400;2023-02-11T01:32:30;30.50;;;18.93;;
9422;SDS011;65863;49.506;10.400;2023-02-11T01:35:14;30.63;;;18.53;;
9422;SDS011;65863;49.506;10.400;2023-02-11T01:37:58;27.40;;;18.10;;
9422;SDS011;65863;49.506;10.400;2023-02-11T01:40:47;30.10;;;19.10;;
9422;SDS011;65863;49.506;10.400;2023-02-11T01:43:47;28.67;;;19.13;;
9422;SDS011;65863;49.506;10.400;2023-02-11T01:46:35;32.03;;;19.20;;
9422;SDS011;65863;49.506;10.400;2023-02-11T01:49:25;29.83;;;18.73;;
9422;SDS011;65863;49.506;10.400;2023-02-11T01:52:17;29.17;;;18.43;;
9422;SDS011;65863;49.506;10.400;2023-02-11T01:55:10;30.93;;;19.87;;
9422;SDS011;65863;49.506;10.400;2023-02-11T01:58:15;35.13;;;19.83;;
9422;SDS011;65863;49.506;10.400;2023-02-11T02:00:59;31.07;;;18.90;;
9422;SDS011;65863;49.506;10.400;2023-02-11T02:03:47;30.03;;;18.50;;
9422;SDS011;65863;49.506;10.400;2023-02-11T02:06:37;34.00;;;19.00;;
9422;SDS011;65863;49.506;10.400;2023-02-11T02:09:27;29.23;;;18.40;;
9422;SDS011;65863;49.506;10.400;2023-02-11T02:12:16;29.57;;;18.57;;
9422;SDS011;65863;49.506;10.400;2023-02-11T02:15:20;28.00;;;18.63;;
9422;SDS011;65863;49.506;10.400;2023-02-11T02:33:12;27.40;;;18.10;;
9422;SDS011;65863;49.506;10.400;2023-02-11T02:36:17;29.40;;;18.47;;
9422;SDS011;65863;49.506;10.400;2023-02-11T02:39:07;27.10;;;17.87;;
9422;SDS011;65863;49.506;10.400;2023-02-11T02:42:03;29.73;;;18.70;;
9422;SDS011;65863;49.506;10.400;2023-02-11T02:44:48;31.80;;;18.63;;
9422;SDS011;65863;49.506;10.400;2023-02-11T02:47:34;26.13;;;17.37;;
9422;SDS011;65863;49.506;10.400;2023-02-11T02:50:20;26.90;;;17.90;;
9422;SDS011;65863;49.506;10.400;2023-02-11T02:53:59;28.43;;;18.17;;
9422;SDS011;65863;49.506;10.400;2023-02-11T02:56:30;29.07;;;18.47;;
9422;SDS011;65863;49.506;10.400;2023-02-11T02:59:26;30.43;;;18.07;;
9422;SDS011;65863;49.506;10.400;2023-02-11T03:02:24;29.70;;;18.30;;
9422;SDS011;65863;49.506;10.400;2023-02-11T03:07:58;32.10;;;18.67;;
9422;SDS011;65863;49.506;10.400;2023-02-11T03:10:51;28.87;;;17.80;;
9422;SDS011;65863;49.506;10.400;2023-02-11T03:13:38;27.87;;;18.00;;
9422;SDS011;65863;49.506;10.400;2023-02-11T03:16:26;30.47;;;18.30;;
9422;SDS011;65863;49.506;10.400;2023-02-11T03:19:33;31.33;;;19.23;;
9422;SDS011;65863;49.506;10.400;2023-02-11T03:22:24;27.97;;;18.23;;
9422;SDS011;65863;49.506;10.400;2023-02-11T03:25:13;28.60;;;17.70;;
9422;SDS011;65863;49.506;10.400;2023-02-11T03:28:03;27.10;;;17.97;;
9422;SDS011;65863;49.506;10.400;2023-02-11T03:30:48;27.97;;;17.47;;
9422;SDS011;65863;49.506;10.400;2023-02-11T03:33:40;27.97;;;17.03;;
9422;SDS011;65863;49.506;10.400;2023-02-11T03:36:41;27.73;;;17.33;;
9422;SDS011;65863;49.506;10.400;2023-02-11T03:39:34;27.57;;;18.33;;
9422;SDS011;65863;49.506;10.400;2023-02-11T03:42:21;32.17;;;17.93;;
9422;SDS011;65863;49.506;10.400;2023-02-11T03:45:09;28.90;;;17.73;;
9422;SDS011;65863;49.506;10.400;2023-02-11T03:47:59;24.27;;;16.10;;
9422;SDS011;65863;49.506;10.400;2023-02-11T03:50:45;25.77;;;17.53;;
9422;SDS011;65863;49.506;10.400;2023-02-11T03:53:32;26.13;;;17.57;;
9422;SDS011;65863;49.506;10.400;2023-02-11T03:56:18;25.47;;;17.00;;
9422;SDS011;65863;49.506;10.400;2023-02-11T03:59:06;27.90;;;17.80;;
9422;SDS011;65863;49.506;10.400;2023-02-11T04:01:50;25.77;;;17.13;;
9422;SDS011;65863;49.506;10.400;2023-02-11T04:04:34;25.23;;;16.10;;
9422;SDS011;65863;49.506;10.400;2023-02-11T04:07:18;26.70;;;17.03;;
9422;SDS011;65863;49.506;10.400;2023-02-11T04:10:03;25.93;;;16.97;;
9422;SDS011;65863;49.506;10.400;2023-02-11T04:12:47;24.83;;;16.57;;
9422;SDS011;65863;49.506;10.400;2023-02-11T04:15:31;24.97;;;17.03;;
9422;SDS011;65863;49.506;10.400;2023-02-11T04:18:15;24.40;;;16.57;;
9422;SDS011;65863;49.506;10.400;2023-02-11T04:20:59;23.03;;;15.73;;
9422;SDS011;65863;49.506;10.400;2023-02-11T04:23:43;27.47;;;16.47;;
9422;SDS011;65863;49.506;10.400;2023-02-11T04:26:27;24.03;;;15.90;;
9422;SDS011;65863;49.506;10.400;2023-02-11T04:29:11;26.73;;;16.10;;
9422;SDS011;65863;49.506;10.400;2023-02-11T04:31:55;22.67;;;14.90;;
9422;SDS011;65863;49.506;10.400;2023-02-11T04:34:39;25.97;;;16.37;;
9422;SDS011;65863;49.506;10.400;2023-02-11T04:37:23;24.47;;;15.27;;
9422;SDS011;65863;49.506;10.400;2023-02-11T04:40:07;24.43;;;16.10;;
9422;SDS011;65863;49.506;10.400;2023-02-11T04:42:51;23.07;;;15.67;;
9422;SDS011;65863;49.506;10.400;2023-02-11T04:45:35;28.63;;;16.17;;
9422;SDS011;65863;49.506;10.400;2023-02-11T04:48:19;25.70;;;16.27;;
9422;SDS011;65863;49.506;10.400;2023-02-11T04:51:03;25.03;;;15.50;;
9422;SDS011;65863;49.506;10.400;2023-02-11T04:53:47;25.87;;;15.53;;
9422;SDS011;65863;49.506;10.400;2023-02-11T04:56:31;24.27;;;15.97;;
9422;SDS011;65863;49.506;10.400;2023-02-11T04:59:15;24.60;;;15.43;;
9422;SDS011;65863;49.506;10.400;2023-02-11T05:01:59;25.10;;;16.17;;
9422;SDS011;65863;49.506;10.400;2023-02-11T05:04:43;24.20;;;16.43;;
9422;SDS011;65863;49.506;10.400;2023-02-11T05:07:27;25.53;;;16.07;;
9422;SDS011;65863;49.506;10.400;2023-02-11T05:10:11;23.33;;;14.70;;
9422;SDS011;65863;49.506;10.400;2023-02-11T05:12:55;22.73;;;14.17;;
9422;SDS011;65863;49.506;10.400;2023-02-11T05:15:39;23.83;;;15.67;;
9422;SDS011;65863;49.506;10.400;2023-02-11T05:18:23;23.30;;;15.03;;
9422;SDS011;65863;49.506;10.400;2023-02-11T05:21:09;24.27;;;15.40;;
9422;SDS011;65863;49.506;10.400;2023-02-11T05:23:54;25.57;;;16.03;;
9422;SDS011;65863;49.506;10.400;2023-02-11T05:26:38;23.37;;;14.43;;
9422;SDS011;65863;49.506;10.400;2023-02-11T05:29:22;22.23;;;15.30;;
9422;SDS011;65863;49.506;10.400;2023-02-11T05:32:06;24.10;;;15.23;;
9422;SDS011;65863;49.506;10.400;2023-02-11T05:34:51;22.23;;;15.40;;
9422;SDS011;65863;49.506;10.400;2023-02-11T05:37:36;21.97;;;14.67;;
9422;SDS011;65863;49.506;10.400;2023-02-11T05:40:20;26.83;;;16.03;;
9422;SDS011;65863;49.506;10.400;2023-02-11T05:43:04;26.30;;;15.73;;
9422;SDS011;65863;49.506;10.400;2023-02-11T05:45:48;21.47;;;14.33;;
9422;SDS011;65863;49.506;10.400;2023-02-11T05:48:32;25.63;;;15.07;;
9422;SDS011;65863;49.506;10.400;2023-02-11T05:51:16;25.83;;;15.63;;
9422;SDS011;65863;49.506;10.400;2023-02-11T05:54:00;20.47;;;14.03;;
9422;SDS011;65863;49.506;10.400;2023-02-11T05:56:44;24.20;;;14.10;;
9422;SDS011;65863;49.506;10.400;2023-02-11T05:59:28;23.37;;;14.23;;
9422;SDS011;65863;49.506;10.400;2023-02-11T06:02:12;21.37;;;14.60;;
9422;SDS011;65863;49.506;10.400;2023-02-11T06:04:56;20.00;;;13.60;;
9422;SDS011;65863;49.506;10.400;2023-02-11T06:07:40;21.83;;;14.77;;
9422;SDS011;65863;49.506;10.400;2023-02-11T06:10:24;21.20;;;14.83;;
9422;SDS011;65863;49.506;10.400;2023-02-11T06:13:09;20.83;;;14.30;;
9422;SDS011;65863;49.506;10.400;2023-02-11T06:15:57;24.10;;;14.10;;
9422;SDS011;65863;49.506;10.400;2023-02-11T06:18:42;24.43;;;14.23;;
9422;SDS011;65863;49.506;10.400;2023-02-11T06:21:26;21.07;;;13.33;;
9422;SDS011;65863;49.506;10.400;2023-02-11T06:24:10;20.30;;;13.40;;
9422;SDS011;65863;49.506;10.400;2023-02-11T06:26:55;21.07;;;13.63;;
9422;SDS011;65863;49.506;10.400;2023-02-11T06:29:38;24.53;;;14.63;;
9422;SDS011;65863;49.506;10.400;2023-02-11T06:32:22;19.60;;;13.37;;
9422;SDS011;65863;49.506;10.400;2023-02-11T06:35:07;21.67;;;13.60;;
9422;SDS011;65863;49.506;10.400;2023-02-11T06:37:51;20.07;;;13.43;;
9422;SDS011;65863;49.506;10.400;2023-02-11T06:40:36;19.47;;;12.63;;
9422;SDS011;65863;49.506;10.400;2023-02-11T06:43:20;21.30;;;13.03;;
9422;SDS011;65863;49.506;10.400;2023-02-11T06:46:04;19.27;;;12.73;;
9422;SDS011;65863;49.506;10.400;2023-02-11T06:48:48;18.33;;;12.90;;
9422;SDS011;65863;49.506;10.400;2023-02-11T06:51:32;19.17;;;11.77;;
9422;SDS011;65863;49.506;10.400;2023-02-11T06:54:16;19.93;;;12.30;;
9422;SDS011;65863;49.506;10.400;2023-02-11T06:57:00;19.77;;;12.57;;
9422;SDS011;65863;49.506;10.400;2023-02-11T06:59:44;19.50;;;12.53;;
9422;SDS011;65863;49.506;10.400;2023-02-11T07:02:28;22.60;;;13.80;;
9422;SDS011;65863;49.506;10.400;2023-02-11T07:05:12;16.53;;;11.97;;
9422;SDS011;65863;49.506;10.400;2023-02-11T07:07:56;22.50;;;13.80;;
9422;SDS011;65863;49.506;10.400;2023-02-11T07:10:40;19.53;;;13.20;;
9422;SDS011;65863;49.506;10.400;2023-02-11T07:13:24;20.83;;;13.57;;
9422;SDS011;65863;49.506;10.400;2023-02-11T07:16:09;20.63;;;13.03;;
9422;SDS011;65863;49.506;10.400;2023-02-11T07:18:56;22.70;;;13.83;;
9422;SDS011;65863;49.506;10.400;2023-02-11T07:21:40;23.13;;;13.77;;
9422;SDS011;65863;49.506;10.400;2023-02-11T07:24:24;20.87;;;13.13;;
9422;SDS011;65863;49.506;10.400;2023-02-11T07:27:08;20.67;;;12.67;;
9422;SDS011;65863;49.506;10.400;2023-02-11T07:29:53;20.17;;;13.43;;
9422;SDS011;65863;49.506;10.400;2023-02-11T07:32:36;19.17;;;13.50;;
9422;SDS011;65863;49.506;10.400;2023-02-11T07:35:21;18.37;;;12.30;;
9422;SDS011;65863;49.506;10.400;2023-02-11T07:38:05;18.50;;;12.40;;
9422;SDS011;65863;49.506;10.400;2023-02-11T07:40:48;18.33;;;12.30;;
9422;SDS011;65863;49.506;10.400;2023-02-11T07:43:33;19.50;;;12.67;;
9422;SDS011;65863;49.506;10.400;2023-02-11T07:46:22;23.57;;;13.27;;
9422;SDS011;65863;49.506;10.400;2023-02-11T07:49:08;19.60;;;12.87;;
9422;SDS011;65863;49.506;10.400;2023-02-11T07:51:52;21.55;;;14.32;;
9422;SDS011;65863;49.506;10.400;2023-02-11T07:54:36;18.17;;;13.23;;
9422;SDS011;65863;49.506;10.400;2023-02-11T07:57:20;20.73;;;13.63;;
9422;SDS011;65863;49.506;10.400;2023-02-11T08:00:04;20.13;;;13.23;;
9422;SDS011;65863;49.506;10.400;2023-02-11T08:02:55;20.13;;;12.83;;
9422;SDS011;65863;49.506;10.400;2023-02-11T08:05:40;21.47;;;13.37;;
9422;SDS011;65863;49.506;10.400;2023-02-11T08:08:25;19.07;;;13.10;;
9422;SDS011;65863;49.506;10.400;2023-02-11T08:11:23;19.87;;;12.00;;
9422;SDS011;65863;49.506;10.400;2023-02-11T08:14:09;16.63;;;11.83;;
9422;SDS011;65863;49.506;10.400;2023-02-11T08:16:54;17.67;;;11.80;;
9422;SDS011;65863;49.506;10.400;2023-02-11T08:19:38;17.60;;;12.10;;
9422;SDS011;65863;49.506;10.400;2023-02-11T08:22:22;17.93;;;11.67;;
9422;SDS011;65863;49.506;10.400;2023-02-11T08:25:06;18.50;;;12.13;;
9422;SDS011;65863;49.506;10.400;2023-02-11T08:27:50;17.40;;;11.10;;
9422;SDS011;65863;49.506;10.400;2023-02-11T08:30:34;18.00;;;11.77;;
9422;SDS011;65863;49.506;10.400;2023-02-11T08:33:19;15.97;;;11.53;;
9422;SDS011;65863;49.506;10.400;2023-02-11T08:36:09;15.27;;;10.43;;
9422;SDS011;65863;49.506;10.400;2023-02-11T08:38:56;15.87;;;11.67;;
9422;SDS011;65863;49.506;10.400;2023-02-11T08:41:42;15.20;;;10.67;;
9422;SDS011;65863;49.506;10.400;2023-02-11T08:44:26;16.67;;;11.50;;
9422;SDS011;65863;49.506;10.400;2023-02-11T08:47:10;16.10;;;11.17;;
9422;SDS011;65863;49.506;10.400;2023-02-11T08:49:54;17.03;;;11.00;;
9422;SDS011;65863;49.506;10.400;2023-02-11T08:52:38;16.63;;;11.10;;
9422;SDS011;65863;49.506;10.400;2023-02-11T08:55:22;17.77;;;11.20;;
9422;SDS011;65863;49.506;10.400;2023-02-11T08:58:06;15.70;;;11.60;;
9422;SDS011;65863;49.506;10.400;2023-02-11T09:00:50;16.63;;;11.27;;
9422;SDS011;65863;49.506;10.400;2023-02-11T09:03:34;15.90;;;11.37;;
9422;SDS011;65863;49.506;10.400;2023-02-11T09:06:18;16.33;;;11.57;;
9422;SDS011;65863;49.506;10.400;2023-02-11T09:09:03;18.73;;;11.07;;
9422;SDS011;65863;49.506;10.400;2023-02-11T09:11:47;15.57;;;10.93;;
9422;SDS011;65863;49.506;10.400;2023-02-11T09:14:31;15.20;;;11.10;;
9422;SDS011;65863;49.506;10.400;2023-02-11T09:17:15;14.70;;;10.57;;
9422;SDS011;65863;49.506;10.400;2023-02-11T09:19:59;13.97;;;10.07;;
9422;SDS011;65863;49.506;10.400;2023-02-11T09:22:43;14.57;;;10.50;;
9422;SDS011;65863;49.506;10.400;2023-02-11T09:25:27;15.40;;;10.73;;
9422;SDS011;65863;49.506;10.400;2023-02-11T09:28:11;16.33;;;10.10;;
9422;SDS011;65863;49.506;10.400;2023-02-11T09:30:55;13.10;;;10.17;;
9422;SDS011;65863;49.506;10.400;2023-02-11T09:33:39;14.90;;;10.53;;
9422;SDS011;65863;49.506;10.400;2023-02-11T09:36:31;15.77;;;10.17;;
9422;SDS011;65863;49.506;10.400;2023-02-11T09:39:18;12.90;;;9.93;;
9422;SDS011;65863;49.506;10.400;2023-02-11T09:42:18;13.50;;;8.83;;
9422;SDS011;65863;49.506;10.400;2023-02-11T09:45:21;13.93;;;10.40;;
9422;SDS011;65863;49.506;10.400;2023-02-11T09:48:14;15.07;;;9.43;;
9422;SDS011;65863;49.506;10.400;2023-02-11T09:51:01;14.30;;;9.60;;
9422;SDS011;65863;49.506;10.400;2023-02-11T09:53:46;12.90;;;9.67;;
9422;SDS011;65863;49.506;10.400;2023-02-11T09:56:36;13.83;;;9.67;;
9422;SDS011;65863;49.506;10.400;2023-02-11T09:59:20;12.80;;;9.37;;
9422;SDS011;65863;49.506;10.400;2023-02-11T10:02:29;13.33;;;9.63;;
9422;SDS011;65863;49.506;10.400;2023-02-11T10:05:24;16.17;;;9.80;;
9422;SDS011;65863;49.506;10.400;2023-02-11T10:08:25;12.53;;;9.87;;
9422;SDS011;65863;49.506;10.400;2023-02-11T10:14:40;15.27;;;10.10;;
9422;SDS011;65863;49.506;10.400;2023-02-11T10:23:58;13.10;;;9.87;;
9422;SDS011;65863;49.506;10.400;2023-02-11T10:26:45;14.50;;;9.93;;
9422;SDS011;65863;49.506;10.400;2023-02-11T10:29:32;14.93;;;10.10;;
9422;SDS011;65863;49.506;10.400;2023-02-11T10:32:32;14.33;;;10.20;;
9422;SDS011;65863;49.506;10.400;2023-02-11T10:35:22;12.07;;;9.27;;
9422;SDS011;65863;49.506;10.400;2023-02-11T10:38:07;14.70;;;10.03;;
9422;SDS011;65863;49.506;10.400;2023-02-11T10:40:51;12.63;;;9.57;;
9422;SDS011;65863;49.506;10.400;2023-02-11T10:43:35;15.13;;;10.47;;
9422;SDS011;65863;49.506;10.400;2023-02-11T10:46:21;14.50;;;10.10;;
9422;SDS011;65863;49.506;10.400;2023-02-11T10:49:09;13.57;;;10.43;;
9422;SDS011;65863;49.506;10.400;2023-02-11T10:52:24;13.47;;;9.80;;
9422;SDS011;65863;49.506;10.400;2023-02-11T10:55:20;17.77;;;11.07;;
9422;SDS011;65863;49.506;10.400;2023-02-11T10:58:17;17.00;;;11.00;;
9422;SDS011;65863;49.506;10.400;2023-02-11T11:01:06;15.77;;;10.53;;
9422;SDS011;65863;49.506;10.400;2023-02-11T11:03:51;15.20;;;10.67;;
9422;SDS011;65863;49.506;10.400;2023-02-11T11:06:35;17.50;;;11.57;;
9422;SDS011;65863;49.506;10.400;2023-02-11T11:09:29;15.80;;;11.30;;
9422;SDS011;65863;49.506;10.400;2023-02-11T11:12:27;15.20;;;11.07;;
9422;SDS011;65863;49.506;10.400;2023-02-11T11:15:21;15.07;;;11.47;;
9422;SDS011;65863;49.506;10.400;2023-02-11T11:18:11;16.83;;;11.30;;
9422;SDS011;65863;49.506;10.400;2023-02-11T11:20:58;17.10;;;11.50;;
9422;SDS011;65863;49.506;10.400;2023-02-11T11:23:51;13.87;;;10.90;;
9422;SDS011;65863;49.506;10.400;2023-02-11T11:27:03;17.13;;;10.50;;
9422;SDS011;65863;49.506;10.400;2023-02-11T11:29:56;15.37;;;11.07;;
9422;SDS011;65863;49.506;10.400;2023-02-11T11:32:40;16.53;;;11.27;;
9422;SDS011;65863;49.506;10.400;2023-02-11T11:35:26;21.23;;;11.77;;
9422;SDS011;65863;49.506;10.400;2023-02-11T11:38:12;17.70;;;10.93;;
9422;SDS011;65863;49.506;10.400;2023-02-11T11:44:23;15.43;;;11.17;;
9422;SDS011;65863;49.506;10.400;2023-02-11T11:47:18;16.27;;;10.80;;
9422;SDS011;65863;49.506;10.400;2023-02-11T11:53:14;13.90;;;10.77;;
9422;SDS011;65863;49.506;10.400;2023-02-11T11:56:17;14.47;;;10.77;;
9422;SDS011;65863;49.506;10.400;2023-02-11T11:59:11;16.57;;;11.37;;
9422;SDS011;65863;49.506;10.400;2023-02-11T12:02:09;15.03;;;11.20;;
9422;SDS011;65863;49.506;10.400;2023-02-11T12:14:20;17.40;;;12.83;;
9422;SDS011;65863;49.506;10.400;2023-02-11T12:17:31;17.97;;;11.73;;
9422;SDS011;65863;49.506;10.400;2023-02-11T12:26:41;17.60;;;11.73;;
9422;SDS011;65863;49.506;10.400;2023-02-11T12:29:35;18.70;;;13.13;;
9422;SDS011;65863;49.506;10.400;2023-02-11T12:36:04;18.77;;;12.27;;
9422;SDS011;65863;49.506;10.400;2023-02-11T12:38:41;16.40;;;12.23;;
9422;SDS011;65863;49.506;10.400;2023-02-11T12:51:30;19.43;;;13.23;;
9422;SDS011;65863;49.506;10.400;2023-02-11T12:54:25;17.00;;;13.17;;
9422;SDS011;65863;49.506;10.400;2023-02-11T12:57:17;16.97;;;12.80;;
9422;SDS011;65863;49.506;10.400;2023-02-11T13:00:18;19.30;;;13.10;;
9422;SDS011;65863;49.506;10.400;2023-02-11T13:03:10;17.23;;;12.57;;
9422;SDS011;65863;49.506;10.400;2023-02-11T13:06:19;16.37;;;12.97;;
9422;SDS011;65863;49.506;10.400;2023-02-11T13:09:18;20.43;;;13.47;;
9422;SDS011;65863;49.506;10.400;2023-02-11T13:12:06;19.83;;;13.27;;
9422;SDS011;65863;49.506;10.400;2023-02-11T13:15:14;18.70;;;13.67;;
9422;SDS011;65863;49.506;10.400;2023-02-11T13:24:32;17.87;;;12.70;;
9422;SDS011;65863;49.506;10.400;2023-02-11T13:30:33;19.07;;;14.03;;
9422;SDS011;65863;49.506;10.400;2023-02-11T13:33:20;18.33;;;12.60;;
9422;SDS011;65863;49.506;10.400;2023-02-11T13:36:16;18.27;;;13.97;;
9422;SDS011;65863;49.506;10.400;2023-02-11T13:39:03;16.43;;;12.87;;
9422;SDS011;65863;49.506;10.400;2023-02-11T13:41:49;17.03;;;13.17;;
9422;SDS011;65863;49.506;10.400;2023-02-11T13:44:34;19.83;;;14.37;;
9422;SDS011;65863;49.506;10.400;2023-02-11T13:47:25;41.13;;;25.70;;
9422;SDS011;65863;49.506;10.400;2023-02-11T13:50:16;34.23;;;20.27;;
9422;SDS011;65863;49.506;10.400;2023-02-11T13:53:06;52.00;;;28.63;;
9422;SDS011;65863;49.506;10.400;2023-02-11T13:55:52;22.73;;;16.47;;
9422;SDS011;65863;49.506;10.400;2023-02-11T13:58:50;17.40;;;13.87;;
9422;SDS011;65863;49.506;10.400;2023-02-11T14:01:38;19.83;;;13.60;;
9422;SDS011;65863;49.506;10.400;2023-02-11T14:05:08;18.17;;;13.63;;
9422;SDS011;65863;49.506;10.400;2023-02-11T14:08:22;19.40;;;13.33;;
9422;SDS011;65863;49.506;10.400;2023-02-11T14:17:17;20.97;;;13.30;;
9422;SDS011;65863;49.506;10.400;2023-02-11T14:23:26;22.03;;;15.67;;
9422;SDS011;65863;49.506;10.400;2023-02-11T14:29:10;21.47;;;15.27;;
9422;SDS011;65863;49.506;10.400;2023-02-11T14:32:03;22.40;;;15.27;;
9422;SDS011;65863;49.506;10.400;2023-02-11T14:43:46;19.60;;;13.67;;
9422;SDS011;65863;49.506;10.400;2023-02-11T14:46:34;23.00;;;15.27;;
9422;SDS011;65863;49.506;10.400;2023-02-11T14:49:26;20.30;;;14.50;;
9422;SDS011;65863;49.506;10.400;2023-02-11T14:52:33;19.17;;;14.43;;
9422;SDS011;65863;49.506;10.400;2023-02-11T14:55:33;20.67;;;14.63;;
9422;SDS011;65863;49.506;10.400;2023-02-11T14:58:21;20.20;;;15.20;;
9422;SDS011;65863;49.506;10.400;2023-02-11T15:01:23;27.10;;;20.60;;
9422;SDS011;65863;49.506;10.400;2023-02-11T15:04:27;23.20;;;16.13;;
9422;SDS011;65863;49.506;10.400;2023-02-11T15:07:13;19.93;;;14.60;;
9422;SDS011;65863;49.506;10.400;2023-02-11T15:09:58;24.83;;;14.67;;
9422;SDS011;65863;49.506;10.400;2023-02-11T15:12:43;20.60;;;15.00;;
9422;SDS011;65863;49.506;10.400;2023-02-11T15:15:31;21.10;;;14.93;;
9422;SDS011;65863;49.506;10.400;2023-02-11T15:18:19;20.73;;;15.03;;
9422;SDS011;65863;49.506;10.400;2023-02-11T15:21:05;26.17;;;15.97;;
9422;SDS011;65863;49.506;10.400;2023-02-11T15:24:04;23.10;;;16.37;;
9422;SDS011;65863;49.506;10.400;2023-02-11T15:27:10;23.40;;;16.00;;
9422;SDS011;65863;49.506;10.400;2023-02-11T15:29:58;22.87;;;15.20;;
9422;SDS011;65863;49.506;10.400;2023-02-11T15:32:42;20.60;;;14.73;;
9422;SDS011;65863;49.506;10.400;2023-02-11T15:35:32;21.77;;;15.57;;
9422;SDS011;65863;49.506;10.400;2023-02-11T15:38:19;20.60;;;15.60;;
9422;SDS011;65863;49.506;10.400;2023-02-11T15:41:04;23.57;;;15.80;;
9422;SDS011;65863;49.506;10.400;2023-02-11T15:43:49;23.17;;;15.27;;
9422;SDS011;65863;49.506;10.400;2023-02-11T15:46:35;20.77;;;14.93;;
9422;SDS011;65863;49.506;10.400;2023-02-11T15:49:21;21.37;;;15.40;;
9422;SDS011;65863;49.506;10.400;2023-02-11T15:52:06;20.73;;;15.27;;
9422;SDS011;65863;49.506;10.400;2023-02-11T15:54:51;20.50;;;15.07;;
9422;SDS011;65863;49.506;10.400;2023-02-11T15:57:40;19.60;;;14.83;;
9422;SDS011;65863;49.506;10.400;2023-02-11T16:00:31;23.60;;;14.87;;
9422;SDS011;65863;49.506;10.400;2023-02-11T16:03:20;23.63;;;15.47;;
9422;SDS011;65863;49.506;10.400;2023-02-11T16:06:23;22.70;;;15.67;;
9422;SDS011;65863;49.506;10.400;2023-02-11T16:12:03;20.60;;;15.73;;
9422;SDS011;65863;49.506;10.400;2023-02-11T16:18:24;38.00;;;25.43;;
9422;SDS011;65863;49.506;10.400;2023-02-11T16:21:30;24.90;;;19.40;;
9422;SDS011;65863;49.506;10.400;2023-02-11T16:24:27;25.60;;;15.93;;
9422;SDS011;65863;49.506;10.400;2023-02-11T16:27:25;23.83;;;16.67;;
9422;SDS011;65863;49.506;10.400;2023-02-11T16:30:32;25.77;;;17.60;;
9422;SDS011;65863;49.506;10.400;2023-02-11T16:33:17;24.17;;;17.07;;
9422;SDS011;65863;49.506;10.400;2023-02-11T16:36:05;26.03;;;19.27;;
9422;SDS011;65863;49.506;10.400;2023-02-11T16:38:54;22.70;;;16.23;;
9422;SDS011;65863;49.506;10.400;2023-02-11T16:41:38;23.60;;;17.13;;
9422;SDS011;65863;49.506;10.400;2023-02-11T16:44:22;22.23;;;16.37;;
9422;SDS011;65863;49.506;10.400;2023-02-11T16:47:09;19.37;;;14.53;;
9422;SDS011;65863;49.506;10.400;2023-02-11T16:50:02;23.67;;;15.60;;
9422;SDS011;65863;49.506;10.400;2023-02-11T16:52:47;23.57;;;16.63;;
9422;SDS011;65863;49.506;10.400;2023-02-11T16:55:32;22.57;;;15.73;;
9422;SDS011;65863;49.506;10.400;2023-02-11T16:58:16;20.83;;;15.20;;
9422;SDS011;65863;49.506;10.400;2023-02-11T17:01:01;21.40;;;15.77;;
9422;SDS011;65863;49.506;10.400;2023-02-11T17:03:46;25.03;;;17.00;;
9422;SDS011;65863;49.506;10.400;2023-02-11T17:06:31;22.27;;;15.87;;
9422;SDS011;65863;49.506;10.400;2023-02-11T17:09:22;22.10;;;16.03;;
9422;SDS011;65863;49.506;10.400;2023-02-11T17:12:07;23.00;;;15.87;;
9422;SDS011;65863;49.506;10.400;2023-02-11T17:14:52;22.10;;;14.90;;
9422;SDS011;65863;49.506;10.400;2023-02-11T17:17:36;23.07;;;16.03;;
9422;SDS011;65863;49.506;10.400;2023-02-11T17:20:20;44.57;;;27.27;;
9422;SDS011;65863;49.506;10.400;2023-02-11T17:23:04;57.07;;;33.80;;
9422;SDS011;65863;49.506;10.400;2023-02-11T17:25:53;38.83;;;26.37;;
9422;SDS011;65863;49.506;10.400;2023-02-11T17:28:38;27.77;;;18.80;;
9422;SDS011;65863;49.506;10.400;2023-02-11T17:31:22;24.27;;;17.20;;
9422;SDS011;65863;49.506;10.400;2023-02-11T17:34:06;25.13;;;17.77;;
9422;SDS011;65863;49.506;10.400;2023-02-11T17:36:51;29.33;;;20.10;;
9422;SDS011;65863;49.506;10.400;2023-02-11T17:39:35;27.37;;;19.53;;
9422;SDS011;65863;49.506;10.400;2023-02-11T17:42:20;38.07;;;25.80;;
9422;SDS011;65863;49.506;10.400;2023-02-11T17:45:04;33.63;;;22.57;;
9422;SDS011;65863;49.506;10.400;2023-02-11T17:47:49;30.97;;;21.77;;
9422;SDS011;65863;49.506;10.400;2023-02-11T17:50:36;31.43;;;21.43;;
9422;SDS011;65863;49.506;10.400;2023-02-11T17:53:20;28.40;;;19.40;;
9422;SDS011;65863;49.506;10.400;2023-02-11T17:56:04;21.70;;;17.43;;
9422;SDS011;65863;49.506;10.400;2023-02-11T17:58:49;27.63;;;18.33;;
9422;SDS011;65863;49.506;10.400;2023-02-11T18:01:35;24.43;;;17.40;;
9422;SDS011;65863;49.506;10.400;2023-02-11T18:04:21;23.53;;;18.00;;